Time;durP1;ratioP1;P1;durP2;ratioP2;P2;SDS_P1;SDS_P2;PMS_P1;PMS_P2;Temp;Humidity;BMP_temperature;BMP_pressure;BME280_temperature;BME280_humidity;BME280_pressure;Samples;Min_cycle;Max_cycle;Signal;HPM_P1;HPM_P2
2021/03/19 00:00:21;;;;;;;11.65;5.97;;;4.00;99.90;;;2.17;86.10;101576.63;4874003;28;104405;-40
2021/03/19 00:02:52;;;;;;;11.88;6.15;;;4.00;99.90;;;2.13;86.02;101592.22;4905646;28;102494;-40
2021/03/19 00:05:25;;;;;;;10.60;6.28;;;4.00;99.90;;;2.00;86.88;101591.59;4889060;28;103101;-40
2021/03/19 00:07:56;;;;;;;10.98;6.40;;;3.80;99.90;;;2.04;86.51;101587.63;4905220;28;103526;-39
2021/03/19 00:10:30;;;;;;;8.95;5.68;;;3.80;99.90;;;2.00;86.31;101594.28;4905408;28;104505;-40
2021/03/19 00:13:05;;;;;;;11.90;7.07;;;3.80;99.90;;;1.96;86.40;101592.84;4905046;28;103544;-40
2021/03/19 00:15:32;;;;;;;12.50;6.55;;;3.80;99.90;;;1.99;86.57;101584.50;4887646;28;102490;-39
2021/03/19 00:18:02;;;;;;;12.25;7.38;;;3.80;99.90;;;1.98;86.33;101596.25;4858586;28;103405;-40
2021/03/19 00:20:39;;;;;;;13.55;7.20;;;3.80;99.90;;;1.98;87.02;101590.88;4905120;28;102563;-40
2021/03/19 00:23:08;;;;;;;13.52;7.22;;;3.70;99.90;;;2.00;86.83;101600.53;4890854;28;102549;-39
2021/03/19 00:25:38;;;;;;;16.13;8.18;;;3.80;99.90;;;2.03;87.20;101601.25;4878693;28;103422;-40
2021/03/19 00:28:13;;;;;;;14.75;8.35;;;3.80;99.90;;;2.06;86.94;101604.50;4894903;28;105633;-40
2021/03/19 00:30:43;;;;;;;16.58;8.27;;;3.80;99.90;;;2.12;86.63;101603.09;4896447;28;103946;-40
2021/03/19 00:33:13;;;;;;;14.77;8.52;;;3.80;99.90;;;2.14;86.35;101604.69;4911198;28;104519;-39
2021/03/19 00:35:43;;;;;;;14.98;9.20;;;3.90;99.90;;;2.13;85.84;101615.56;4910625;28;102647;-40
2021/03/19 00:38:11;;;;;;;17.23;8.60;;;3.90;99.90;;;2.13;85.71;101608.38;4911305;28;102479;-40
2021/03/19 00:40:41;;;;;;;15.07;9.02;;;3.90;99.90;;;2.15;85.65;101622.53;4895234;28;104541;-40
2021/03/19 00:43:13;;;;;;;17.35;8.88;;;3.90;99.90;;;2.12;85.43;101620.13;4895085;28;104502;-40
2021/03/19 00:45:41;;;;;;;14.57;7.82;;;3.90;99.90;;;2.06;86.11;101626.03;4910966;28;103627;-40
2021/03/19 00:48:09;;;;;;;;;;;3.80;99.90;;;2.11;85.66;101629.16;4896388;28;104155;-40
2021/03/19 00:50:52;;;;;;;16.83;8.68;;;3.80;99.90;;;2.11;85.49;101628.31;4899337;28;102543;-40
2021/03/19 00:53:21;;;;;;;17.23;9.20;;;3.90;99.90;;;2.08;85.15;101631.28;4894215;28;104726;-39
2021/03/19 00:55:51;;;;;;;17.58;9.43;;;3.80;99.90;;;1.99;85.61;101630.28;4895100;28;102470;-39
2021/03/19 00:58:19;;;;;;;18.10;9.43;;;3.80;99.90;;;1.99;86.06;101627.56;4895442;28;103462;-40
2021/03/19 01:00:46;;;;;;;16.02;8.50;;;3.70;99.90;;;2.00;85.20;101640.03;4863852;28;103555;-40
2021/03/19 01:03:14;;;;;;;17.38;9.70;;;3.80;99.90;;;2.00;84.89;101630.16;4895208;28;102361;-39
2021/03/19 01:05:45;;;;;;;20.45;9.50;;;3.80;99.90;;;1.99;84.39;101627.56;4879555;28;104460;-39
2021/03/19 01:08:15;;;;;;;23.83;9.48;;;3.70;99.90;;;1.95;83.85;101620.75;4894719;28;105785;-40
2021/03/19 01:10:51;;;;;;;16.08;9.05;;;3.70;99.90;;;1.94;84.28;101624.44;4894761;28;105257;-39
2021/03/19 01:13:19;;;;;;;15.90;8.75;;;3.70;99.90;;;1.83;84.64;101633.47;4894168;28;103489;-39
2021/03/19 01:15:46;;;;;;;;;;;3.70;99.90;;;1.83;84.27;101634.31;4880184;28;102711;-40
2021/03/19 01:18:19;;;;;;;18.63;8.20;;;3.60;99.90;;;1.75;85.21;101622.53;4879530;28;102336;-40
2021/03/19 01:20:49;;;;;;;19.27;9.15;;;3.60;99.90;;;1.69;85.32;101626.59;4893057;28;102652;-40
2021/03/19 01:23:18;;;;;;;16.05;8.80;;;3.50;99.90;;;1.68;85.62;101631.13;4909684;28;104234;-38
2021/03/19 01:25:46;;;;;;;20.55;9.45;;;3.50;99.90;;;1.78;85.27;101631.16;4863666;28;103673;-40
2021/03/19 01:28:14;;;;;;;16.50;8.93;;;3.50;99.90;;;1.80;84.27;101636.44;4879391;28;104297;-40
2021/03/19 01:30:45;;;;;;;18.52;8.68;;;3.50;99.90;;;1.77;84.96;101642.91;4895345;28;102671;-40
2021/03/19 01:33:13;;;;;;;15.85;9.38;;;3.50;99.90;;;1.72;85.28;101650.56;4894916;28;103329;-40
2021/03/19 01:35:42;;;;;;;20.05;10.02;;;3.50;99.90;;;1.79;84.92;101648.19;4875798;28;103123;-39
2021/03/19 01:38:12;;;;;;;17.30;9.43;;;3.50;99.90;;;1.71;85.16;101644.31;4891495;28;103350;-40
2021/03/19 01:40:45;;;;;;;20.33;10.25;;;3.50;99.90;;;1.67;85.52;101652.78;4891673;28;102306;-39
2021/03/19 01:43:41;;;;;;;17.30;9.40;;;3.50;99.90;;;1.67;85.35;101650.94;4891501;28;102364;-39
2021/03/19 01:46:37;;;;;;;17.98;8.80;;;3.40;99.90;;;1.67;85.12;101661.69;4907091;28;103597;-39
2021/03/19 01:49:33;;;;;;;17.77;9.20;;;3.50;99.90;;;1.65;85.24;101652.06;4907495;28;102361;-40
2021/03/19 01:52:29;;;;;;;15.77;8.98;;;3.40;99.90;;;1.58;85.20;101666.03;4878172;28;102990;-40
2021/03/19 01:55:25;;;;;;;19.23;10.52;;;3.40;99.90;;;1.54;85.41;101666.47;4890538;28;106007;-39
2021/03/19 01:58:21;;;;;;;17.58;9.82;;;3.30;99.90;;;1.61;85.24;101664.09;4891148;28;105714;-40
2021/03/19 02:01:17;;;;;;;17.13;9.45;;;3.40;99.90;;;1.53;84.85;101662.06;4876808;28;104451;-39
2021/03/19 02:04:13;;;;;;;20.73;11.10;;;3.30;99.90;;;1.50;85.26;101665.84;4906418;28;102897;-39
2021/03/19 02:07:09;;;;;;;19.42;10.52;;;3.30;99.90;;;1.58;85.06;101665.19;4906933;28;103774;-39
2021/03/19 02:10:06;;;;;;;20.42;10.70;;;3.30;99.90;;;1.54;84.86;101664.59;4922867;28;102901;-40
2021/03/19 02:13:02;;;;;;;17.58;9.90;;;3.30;99.90;;;1.50;85.08;101662.34;4906998;28;102808;-40
2021/03/19 02:15:58;;;;;;;18.27;9.82;;;3.30;99.90;;;1.44;85.10;101661.00;4961343;22;103466;-39
2021/03/19 02:18:54;;;;;;;17.13;9.63;;;3.30;99.90;;;1.42;85.12;101662.97;4937805;28;104466;-39
2021/03/19 02:21:58;;;;;;;19.38;9.98;;;3.20;99.90;;;1.39;84.83;101666.78;4927916;28;102226;-39
2021/03/19 02:24:54;;;;;;;18.52;10.40;;;3.20;99.90;;;1.41;84.92;101675.56;4928646;28;103337;-39
2021/03/19 02:27:50;;;;;;;19.58;10.20;;;3.20;99.90;;;1.31;84.56;101677.34;4928852;28;102604;-39
2021/03/19 02:30:46;;;;;;;21.92;10.20;;;3.10;99.90;;;1.31;84.31;101666.59;4929001;28;102453;-39
2021/03/19 02:33:14;;;;;;;17.55;10.18;;;3.10;99.90;;;1.17;84.85;101675.81;4929156;28;102793;-39
2021/03/19 02:35:56;;;;;;;20.30;9.65;;;3.00;99.90;;;1.12;84.99;101675.38;4912889;28;103535;-39
2021/03/19 02:38:27;;;;;;;16.88;9.10;;;3.00;99.90;;;1.07;85.03;101670.38;4928510;28;103392;-39
2021/03/19 02:40:55;;;;;;;18.83;9.80;;;2.90;99.90;;;1.02;85.13;101677.97;4929648;28;104415;-39
2021/03/19 02:43:25;;;;;;;17.75;9.48;;;2.90;99.90;;;1.00;85.28;101679.94;4927838;28;104332;-38
2021/03/19 02:45:54;;;;;;;18.83;9.52;;;2.80;99.90;;;0.93;85.73;101679.59;4912517;28;103474;-39
2021/03/19 02:48:21;;;;;;;17.33;9.93;;;2.80;99.90;;;0.95;85.64;101685.69;4912961;28;102297;-38
2021/03/19 02:50:50;;;;;;;17.13;9.65;;;2.80;99.90;;;0.98;85.73;101682.75;4881288;28;105905;-40
2021/03/19 02:53:27;;;;;;;20.73;10.05;;;2.80;99.90;;;1.00;85.33;101696.91;4912389;28;105398;-38
2021/03/19 02:55:57;;;;;;;20.42;10.27;;;2.80;99.90;;;0.98;85.08;101692.66;4944712;28;102344;-39
2021/03/19 02:58:27;;;;;;;21.17;10.30;;;2.80;99.90;;;1.00;85.54;101691.53;4928831;28;102653;-39
2021/03/19 03:00:55;;;;;;;21.02;9.23;;;2.80;99.90;;;1.08;85.25;101692.75;4944853;28;102308;-39
2021/03/19 03:03:23;;;;;;;16.02;8.90;;;2.90;99.90;;;1.09;85.40;101678.31;4912383;28;103631;-39
2021/03/19 03:05:51;;;;;;;18.00;9.02;;;2.90;99.90;;;1.10;85.60;101688.91;4928726;28;102572;-39
2021/03/19 03:08:22;;;;;;;21.98;10.25;;;2.90;99.90;;;1.15;85.19;101686.69;4928880;28;103523;-39
2021/03/19 03:10:54;;;;;;;17.45;10.35;;;2.90;99.90;;;1.12;84.33;101704.94;4912538;28;103393;-39
2021/03/19 03:13:22;;;;;;;20.80;10.95;;;2.90;99.90;;;1.08;85.01;101700.81;4928089;28;103863;-39
2021/03/19 03:15:50;;;;;;;19.20;10.90;;;2.90;99.90;;;1.13;84.45;101707.47;4896474;28;105240;-39
2021/03/19 03:18:20;;;;;;;20.20;10.32;;;2.90;99.90;;;1.17;84.95;101717.97;4928986;28;103693;-39
2021/03/19 03:20:55;;;;;;;19.00;9.43;;;2.90;99.90;;;1.28;84.13;101726.00;4943355;28;102451;-39
2021/03/19 03:23:27;;;;;;;20.58;10.13;;;3.00;99.90;;;1.30;84.69;101732.09;4944177;28;105558;-39
2021/03/19 03:25:57;;;;;;;18.75;10.57;;;3.10;99.90;;;1.29;84.57;101728.53;4912285;28;103443;-39
2021/03/19 03:28:25;;;;;;;18.10;8.15;;;3.10;99.90;;;1.35;83.29;101731.72;4928354;28;104702;-39
2021/03/19 03:30:58;;;;;;;13.40;7.45;;;3.10;99.90;;;1.38;83.19;101739.53;4928124;28;103398;-39
2021/03/19 03:33:27;;;;;;;14.32;7.75;;;3.10;99.90;;;1.39;83.35;101741.22;4960391;28;103410;-39
2021/03/19 03:35:54;;;;;;;15.43;8.05;;;3.10;99.90;;;1.37;82.22;101740.50;4911901;28;102653;-39
2021/03/19 03:38:27;;;;;;;12.93;7.38;;;3.10;99.90;;;1.35;82.55;101742.47;4912750;28;102582;-39
2021/03/19 03:41:03;;;;;;;13.27;7.28;;;3.10;99.90;;;1.40;82.34;101759.91;4912205;28;103492;-39
2021/03/19 03:43:33;;;;;;;13.77;7.10;;;3.10;99.90;;;1.36;81.94;101760.31;4927896;28;103061;-39
2021/03/19 03:46:04;;;;;;;15.75;7.93;;;3.10;99.90;;;1.25;81.91;101737.03;4928275;28;103368;-38
2021/03/19 03:48:35;;;;;;;14.75;7.90;;;3.20;99.90;;;1.35;81.82;101758.63;4943907;28;102238;-39
2021/03/19 03:51:07;;;;;;;15.13;8.00;;;3.10;99.90;;;1.37;81.58;101756.66;4928204;28;103220;-39
2021/03/19 03:53:38;;;;;;;12.80;7.05;;;3.10;99.90;;;1.36;81.82;101757.63;4943792;28;102466;-39
2021/03/19 03:56:08;;;;;;;13.23;7.72;;;3.10;99.90;;;1.34;81.87;101760.44;4943582;28;104130;-39
2021/03/19 03:58:38;;;;;;;13.43;7.80;;;3.10;99.90;;;1.32;82.01;101766.91;4927313;28;102756;-39
2021/03/19 04:01:06;;;;;;;15.52;8.48;;;3.10;99.90;;;1.28;82.33;101769.03;4911871;28;103430;-38
2021/03/19 04:03:35;;;;;;;17.13;8.18;;;3.10;99.90;;;1.27;82.56;101773.53;4927088;28;103568;-39
2021/03/19 04:06:04;;;;;;;16.75;8.63;;;3.10;99.90;;;1.25;83.17;101775.50;4943599;28;104601;-39
2021/03/19 04:08:33;;;;;;;17.27;8.57;;;3.10;99.90;;;1.25;82.99;101769.28;4943900;28;102812;-39
2021/03/19 04:11:06;;;;;;;17.10;8.50;;;3.00;99.90;;;1.22;82.94;101778.44;4927759;28;102504;-39
2021/03/19 04:13:34;;;;;;;16.95;8.48;;;3.00;99.90;;;1.25;82.71;101780.03;4911617;28;104481;-39
2021/03/19 04:16:03;;;;;;;16.63;8.68;;;3.00;99.90;;;1.24;82.61;101779.16;4927478;28;107022;-38
2021/03/19 04:18:31;;;;;;;15.75;8.52;;;3.00;99.90;;;1.24;82.73;101781.03;4944071;28;102720;-39
2021/03/19 04:21:07;;;;;;;20.58;9.60;;;3.00;99.90;;;1.17;82.49;101793.25;4926634;28;104281;-38
2021/03/19 04:23:41;;;;;;;17.48;9.05;;;3.00;99.90;;;1.06;82.71;101803.06;4942870;28;102810;-39
2021/03/19 04:26:23;;;;;;;19.90;9.38;;;2.90;99.90;;;1.04;82.64;101790.72;4927077;28;104166;-38
2021/03/19 04:28:52;;;;;;;23.75;9.70;;;2.90;99.90;;;1.11;82.56;101790.09;4943682;28;103624;-39
2021/03/19 04:31:21;;;;;;;16.17;8.45;;;2.90;99.90;;;1.01;82.47;101797.22;4960393;28;105240;-39
2021/03/19 04:33:50;;;;;;;20.88;9.32;;;2.80;99.90;;;0.93;82.80;101794.28;4926734;28;105311;-39
2021/03/19 04:36:42;;;;;;;17.10;8.88;;;2.80;99.90;;;0.93;83.32;101802.34;4927184;28;102397;-39
2021/03/19 04:39:16;;;;;;;17.05;8.88;;;2.70;99.90;;;0.86;83.28;101808.22;4930953;28;104147;-39
2021/03/19 04:41:49;;;;;;;16.38;8.68;;;2.70;99.90;;;0.82;83.03;101805.94;4943272;28;105666;-39
2021/03/19 04:44:20;;;;;;;15.88;8.35;;;2.70;99.90;;;0.80;83.40;101813.25;4942911;28;102434;-39
2021/03/19 04:46:47;;;;;;;19.65;9.30;;;2.60;99.90;;;0.88;83.43;101810.78;4943747;28;102389;-39
2021/03/19 04:49:15;;;;;;;18.90;9.02;;;2.60;99.90;;;0.89;83.16;101808.94;4927726;28;102749;-39
2021/03/19 04:51:43;;;;;;;16.75;8.80;;;2.70;99.90;;;0.79;83.09;101815.06;4927403;28;103377;-38
2021/03/19 04:54:11;;;;;;;18.07;8.57;;;2.60;99.90;;;0.68;83.35;101820.47;4910406;28;102953;-38
2021/03/19 04:56:39;;;;;;;14.48;7.85;;;2.60;99.90;;;0.62;83.46;101827.19;4960627;28;103591;-39
2021/03/19 04:59:07;;;;;;;;;;;2.50;99.90;;;0.59;83.44;101822.06;4961876;28;102649;-38
2021/03/19 05:01:58;;;;;;;14.65;7.55;;;2.50;99.90;;;0.50;83.74;101833.50;4911490;28;102337;-38
2021/03/19 05:04:27;;;;;;;19.77;8.18;;;2.40;99.90;;;0.42;83.69;101826.91;4926357;28;105624;-39
2021/03/19 05:07:02;;;;;;;13.93;7.40;;;2.30;99.90;;;0.34;83.99;101829.38;4943344;28;105139;-39
2021/03/19 05:09:32;;;;;;;18.25;8.25;;;2.20;99.90;;;0.26;84.01;101839.81;4960661;28;103861;-38
2021/03/19 05:12:03;;;;;;;18.00;8.82;;;2.20;99.90;;;0.21;84.56;101834.84;4945896;28;103387;-39
2021/03/19 05:14:30;;;;;;;18.38;8.90;;;2.10;99.90;;;0.22;84.51;101851.78;4963128;28;102612;-39
2021/03/19 05:16:57;;;;;;;18.27;8.53;;;2.10;99.90;;;0.11;84.56;101850.78;4946115;28;102497;-38
2021/03/19 05:19:25;;;;;;;20.23;8.75;;;2.00;99.90;;;0.04;85.09;101854.94;4946746;28;103009;-39
2021/03/19 05:21:53;;;;;;;16.23;8.80;;;1.90;99.90;;;-0.04;85.19;101858.19;4913388;28;103410;-39
2021/03/19 05:24:20;;;;;;;15.68;7.75;;;1.90;99.90;;;-0.10;85.65;101860.50;4930085;28;104908;-39
2021/03/19 05:26:47;;;;;;;17.63;8.37;;;1.80;99.90;;;-0.13;85.56;101863.41;4898589;28;102447;-39
2021/03/19 05:29:15;;;;;;;17.27;8.33;;;1.80;99.90;;;-0.23;86.10;101864.13;4946288;28;102399;-39
2021/03/19 05:31:43;;;;;;;16.95;8.55;;;1.80;99.90;;;-0.23;86.35;101872.16;4914110;28;102751;-39
2021/03/19 05:34:13;;;;;;;;;;;1.70;99.90;;;-0.22;85.50;101876.56;4914835;28;102714;-39
2021/03/19 05:36:40;;;;;;;;;;;1.70;99.90;;;-0.23;85.83;101863.25;4965307;28;102370;-39
2021/03/19 05:39:11;;;;;;;16.17;7.53;;;1.70;99.90;;;-0.27;85.96;101878.69;4930465;28;102381;-39
2021/03/19 05:41:44;;;;;;;18.13;7.68;;;1.70;99.90;;;-0.38;86.53;101867.94;4946096;28;104686;-39
2021/03/19 05:44:24;;;;;;;17.00;8.13;;;1.60;99.90;;;-0.46;86.45;101872.06;4945048;28;102655;-39
2021/03/19 05:47:00;;;;;;;16.40;8.05;;;1.50;99.90;;;-0.51;86.11;101878.72;4963337;28;103193;-38
2021/03/19 05:49:32;;;;;;;17.25;8.45;;;1.50;99.90;;;-0.53;86.98;101880.66;4931083;28;104346;-39
2021/03/19 05:52:22;;;;;;;15.65;7.78;;;1.40;99.90;;;-0.46;86.80;101881.91;4962554;28;105351;-39
2021/03/19 05:54:52;;;;;;;17.17;7.93;;;1.40;99.90;;;-0.49;86.66;101890.19;4944733;28;104654;-39
2021/03/19 05:57:32;;;;;;;17.63;8.00;;;1.40;99.90;;;-0.53;86.05;101894.06;4963806;28;104425;-39
2021/03/19 06:00:02;;;;;;;18.80;9.07;;;1.40;99.90;;;-0.50;86.04;101892.03;4929682;28;102553;-39
2021/03/19 06:02:38;;;;;;;18.92;7.93;;;1.40;99.90;;;-0.51;85.43;101895.69;4946064;28;105543;-38
2021/03/19 06:05:28;;;;;;;16.70;7.55;;;1.40;99.90;;;-0.45;85.02;101892.53;4945140;28;104001;-38
2021/03/19 06:08:07;;;;;;;18.05;7.90;;;1.40;99.90;;;-0.48;85.25;101899.94;4945471;28;103386;-39
2021/03/19 06:10:44;;;;;;;;;;;1.40;99.90;;;-0.46;84.68;101904.22;4946793;28;102687;-39
2021/03/19 06:13:19;;;;;;;14.07;7.35;;;1.40;99.90;;;-0.48;84.67;101907.97;4946304;28;104068;-39
2021/03/19 06:15:54;;;;;;;14.50;6.97;;;1.40;99.90;;;-0.47;84.21;101913.25;4945542;28;102620;-39
2021/03/19 06:18:46;;;;;;;14.23;7.38;;;1.40;99.90;;;-0.44;83.91;101912.16;4962491;28;102403;-39
2021/03/19 06:21:33;;;;;;;13.65;6.68;;;1.40;99.90;;;-0.37;82.88;101925.97;4943510;28;104493;-38
2021/03/19 06:24:20;;;;;;;10.77;6.00;;;1.50;99.90;;;-0.33;82.58;101935.50;4946349;28;102525;-39
2021/03/19 06:26:48;;;;;;;12.10;6.03;;;1.50;99.90;;;-0.30;82.13;101933.44;4945328;28;103396;-39
2021/03/19 06:29:27;;;;;;;11.40;6.25;;;1.50;99.90;;;-0.31;81.21;101931.75;4929001;28;106003;-39
2021/03/19 06:32:03;;;;;;;;;;;1.60;99.90;;;-0.26;81.46;101934.09;4946558;28;102638;-39
2021/03/19 06:34:31;;;;;;;12.43;5.70;;;1.60;99.90;;;-0.27;81.10;101940.41;4962282;28;103499;-39
2021/03/19 06:37:06;;;;;;;10.02;5.88;;;1.60;99.90;;;-0.23;80.92;101943.72;4929114;28;102644;-39
2021/03/19 06:39:48;;;;;;;8.93;5.22;;;1.60;99.90;;;-0.22;80.91;101942.75;4962375;28;102262;-39
2021/03/19 06:42:25;;;;;;;10.63;5.28;;;1.60;99.90;;;-0.16;80.44;101955.69;4962591;28;102683;-38
2021/03/19 06:45:14;;;;;;;9.90;5.40;;;1.70;99.90;;;-0.12;79.89;101935.75;4927722;28;104386;-39
2021/03/19 06:47:46;;;;;;;8.40;5.15;;;1.70;99.90;;;-0.05;79.45;101954.91;4962837;28;103483;-39
2021/03/19 06:50:37;;;;;;;11.13;5.43;;;1.70;99.90;;;-0.03;79.58;101956.50;4961999;28;105309;-39
2021/03/19 06:53:17;;;;;;;10.85;5.72;;;1.80;99.90;;;0.01;78.70;101957.16;4945050;28;102600;-39
2021/03/19 06:55:52;;;;;;;12.25;5.90;;;1.80;99.90;;;0.04;79.40;101956.03;4961436;28;105268;-38
2021/03/19 06:58:45;;;;;;;9.55;5.65;;;1.80;99.90;;;0.12;78.31;101959.00;4960821;28;103331;-38
2021/03/19 07:01:24;;;;;;;11.38;5.63;;;1.90;99.90;;;0.14;78.86;101963.28;4962273;28;103391;-39
2021/03/19 07:04:18;;;;;;;10.43;4.85;;;1.90;99.90;;;0.22;78.65;101961.84;4961789;28;103569;-39
2021/03/19 07:06:53;;;;;;;8.43;5.25;;;2.00;99.90;;;0.26;77.82;101969.56;4961961;28;102263;-39
2021/03/19 07:09:40;;;;;;;11.55;5.22;;;2.10;99.90;;;0.35;77.44;101976.06;4944963;28;102348;-39
2021/03/19 07:12:27;;;;;;;8.88;5.40;;;2.10;99.90;;;0.40;76.75;101973.88;4944504;28;102492;-40
2021/03/19 07:15:13;;;;;;;8.30;5.00;;;2.20;99.90;;;0.47;76.02;101984.13;4960311;28;104691;-39
2021/03/19 07:17:50;;;;;;;9.23;5.07;;;2.20;99.90;;;0.55;77.30;101974.53;4961940;28;103394;-39
2021/03/19 07:20:32;;;;;;;7.45;5.03;;;2.30;99.90;;;0.68;77.01;101977.13;4944389;28;102289;-39
2021/03/19 07:23:19;;;;;;;10.05;4.68;;;2.40;99.90;;;0.75;74.67;101985.56;4961132;28;102998;-39
2021/03/19 07:26:08;;;;;;;8.77;4.63;;;2.50;99.90;;;0.89;75.70;101986.28;4943937;28;102505;-39
2021/03/19 07:29:10;;;;;;;;;;;2.60;99.90;;;0.92;74.21;101991.44;4945946;28;102765;-39
2021/03/19 07:31:57;;;;;;;9.30;4.80;;;2.70;99.90;;;1.06;75.42;101993.03;4933500;28;103263;-38
2021/03/19 07:34:48;;;;;;;8.73;4.20;;;2.70;99.90;;;1.21;75.17;101993.69;4942272;28;104116;-39
2021/03/19 07:37:35;;;;;;;9.93;5.00;;;2.90;99.90;;;1.34;73.48;102001.63;4945867;28;102745;-39
2021/03/19 07:40:22;;;;;;;7.35;4.45;;;3.00;99.90;;;1.38;73.62;102016.53;4945726;28;102988;-39
2021/03/19 07:43:14;;;;;;;8.13;4.35;;;3.10;99.90;;;1.50;73.97;102020.91;4961643;28;102573;-39
2021/03/19 07:46:08;;;;;;;9.57;4.93;;;3.10;99.90;;;1.57;72.12;102022.13;4961447;28;103393;-39
2021/03/19 07:49:05;;;;;;;7.38;4.13;;;3.30;99.90;;;1.71;72.42;102028.22;4961503;28;104771;-39
2021/03/19 07:51:52;;;;;;;8.45;4.78;;;3.30;99.90;;;1.82;71.92;102033.59;4961552;28;102369;-39
2021/03/19 07:54:48;;;;;;;8.75;4.68;;;3.50;99.90;;;1.80;71.38;102040.09;4942897;28;102750;-38
2021/03/19 07:57:35;;;;;;;7.65;4.30;;;3.50;99.90;;;1.86;70.58;102040.47;4960766;28;102334;-39
2021/03/19 08:00:26;;;;;;;9.32;4.47;;;3.60;99.90;;;1.96;71.13;102045.06;4961400;28;102661;-39
2021/03/19 08:03:16;;;;;;;9.70;4.40;;;3.60;99.90;;;2.08;71.17;102040.53;4945026;28;103345;-39
2021/03/19 08:05:54;;;;;;;8.02;4.50;;;3.70;99.90;;;2.12;70.70;102042.84;4961159;28;102406;-39
2021/03/19 08:08:32;;;;;;;9.63;5.20;;;3.80;99.90;;;2.17;70.74;102034.34;4944231;28;103450;-39
2021/03/19 08:11:15;;;;;;;8.40;4.38;;;3.90;99.90;;;2.26;71.23;102052.47;4945924;28;102343;-39
2021/03/19 08:14:04;;;;;;;6.78;4.03;;;3.90;99.90;;;2.39;71.17;102049.59;4960677;28;103284;-39
2021/03/19 08:16:42;;;;;;;10.02;4.57;;;4.00;99.90;;;2.35;70.37;102049.97;4987282;22;104201;-39
2021/03/19 08:19:27;;;;;;;11.07;4.55;;;4.00;99.90;;;2.42;69.20;102054.75;4920950;28;104134;-39
2021/03/19 08:22:18;;;;;;;11.07;4.47;;;4.10;99.90;;;2.52;69.74;102052.13;4919217;28;103343;-39
2021/03/19 08:25:14;;;;;;;7.55;4.50;;;4.20;99.90;;;2.64;69.14;102046.66;4922200;28;103438;-39
2021/03/19 08:27:57;;;;;;;7.78;4.10;;;4.30;99.90;;;2.77;68.40;102057.25;4922107;28;102666;-39
2021/03/19 08:30:49;;;;;;;7.50;4.35;;;4.40;99.90;;;2.72;66.33;102055.81;4922798;28;102746;-39
2021/03/19 08:33:45;;;;;;;11.27;4.63;;;4.40;99.90;;;2.64;68.53;102070.94;4919307;28;104566;-38
2021/03/19 08:36:44;;;;;;;9.05;4.00;;;4.30;99.90;;;2.80;68.39;102068.66;4922104;28;102963;-39
2021/03/19 08:39:35;;;;;;;6.78;3.70;;;4.40;99.90;;;2.89;66.83;102075.06;4921053;28;102403;-39
2021/03/19 08:42:11;;;;;;;6.05;3.72;;;4.50;99.90;;;2.99;66.90;102078.72;4922337;28;102435;-39
2021/03/19 08:44:41;;;;;;;8.77;4.53;;;4.60;99.90;;;3.02;65.75;102086.53;4921452;28;103349;-39
2021/03/19 08:47:27;;;;;;;8.02;3.95;;;4.70;99.90;;;3.06;65.17;102086.25;4939874;28;102533;-39
2021/03/19 08:50:13;;;;;;;8.75;3.97;;;4.80;99.90;;;3.01;65.45;102087.53;4925395;28;102960;-39
2021/03/19 08:53:01;;;;;;;7.43;4.32;;;4.70;99.90;;;3.15;65.19;102091.72;4925654;28;102333;-39
2021/03/19 08:55:32;;;;;;;7.78;3.33;;;4.80;99.90;;;3.30;66.24;102097.63;4924169;28;103392;-39
2021/03/19 08:58:30;;;;;;;5.45;3.17;;;4.90;99.90;;;3.49;66.40;102096.03;4925707;28;104658;-39
2021/03/19 09:01:04;;;;;;;7.90;3.60;;;5.00;99.90;;;3.63;65.26;102105.63;4923931;28;102291;-39
2021/03/19 09:03:42;;;;;;;7.32;3.78;;;5.20;99.90;;;3.74;64.14;102104.69;4924772;28;102296;-39
2021/03/19 09:06:15;;;;;;;6.95;3.10;;;5.30;99.90;;;3.82;62.28;102110.25;4924874;28;103420;-39
2021/03/19 09:08:45;;;;;;;6.60;3.08;;;5.40;99.90;;;3.87;63.11;102112.53;4925264;28;103366;-39
2021/03/19 09:11:34;;;;;;;7.70;3.72;;;5.50;99.90;;;3.85;61.57;102112.66;4924950;28;102585;-39
2021/03/19 09:14:03;;;;;;;6.43;3.10;;;5.50;99.90;;;3.95;62.86;102114.53;4924064;28;105296;-39
2021/03/19 09:16:43;;;;;;;7.43;3.33;;;5.60;99.90;;;4.13;64.09;102112.88;4939253;28;103811;-39
2021/03/19 09:19:32;;;;;;;8.20;3.60;;;5.70;99.90;;;4.28;62.70;102117.91;4944439;28;103179;-39
2021/03/19 09:22:18;;;;;;;6.22;3.08;;;5.80;99.90;;;4.38;61.99;102116.06;4943077;28;102568;-39
2021/03/19 09:25:16;;;;;;;5.45;2.72;;;5.90;99.90;;;4.14;62.09;102128.09;4943398;28;104353;-39
2021/03/19 09:31:07;;;;;;;5.40;2.63;;;5.80;99.90;;;4.03;59.71;102130.94;4932430;28;104146;-39
2021/03/19 09:33:44;;;;;;;5.50;2.30;;;5.80;99.90;;;4.06;59.75;102137.88;4926079;28;102626;-39
2021/03/19 09:36:41;;;;;;;4.78;2.72;;;5.70;99.90;;;4.22;60.15;102129.25;4943495;28;102940;-39
2021/03/19 09:39:47;;;;;;;4.97;2.33;;;5.80;99.90;;;4.09;57.21;102138.47;4927230;28;102337;-39
2021/03/19 09:42:27;;;;;;;6.18;1.92;;;5.80;99.90;;;4.23;57.39;102145.34;4932684;28;102281;-39
2021/03/19 09:45:05;;;;;;;5.25;2.28;;;5.80;99.90;;;4.50;59.93;102148.38;4942891;28;102534;-39
2021/03/19 09:47:37;;;;;;;4.20;2.20;;;6.00;99.90;;;4.77;56.10;102144.13;4928726;28;102322;-39
2021/03/19 09:50:22;;;;;;;5.70;2.15;;;6.20;99.90;;;4.92;56.39;102155.41;4943794;28;102381;-39
2021/03/19 09:53:03;;;;;;;4.53;1.90;;;6.40;99.90;;;5.12;56.32;102151.66;4943851;28;104369;-39
2021/03/19 09:55:44;;;;;;;4.45;1.50;;;6.60;99.90;;;5.09;54.77;102161.94;4942117;28;103306;-39
2021/03/19 09:58:24;;;;;;;3.53;1.70;;;6.70;99.90;;;4.87;54.76;102153.94;4943526;28;102267;-39
2021/03/19 10:01:02;;;;;;;2.55;1.50;;;6.60;99.90;;;4.91;52.96;102157.25;4943637;28;102572;-39
2021/03/19 10:03:52;;;;;;;2.85;1.65;;;6.60;99.90;;;4.86;53.36;102164.94;4943515;28;102391;-39
2021/03/19 10:06:30;;;;;;;4.53;1.67;;;6.60;99.90;;;5.17;55.48;102159.38;4943568;28;102790;-39
2021/03/19 10:09:15;;;;;;;3.40;1.83;;;6.70;99.90;;;5.24;52.64;102163.19;4926799;28;102548;-39
2021/03/19 10:12:03;;;;;;;2.83;1.58;;;6.80;99.90;;;5.02;53.19;102169.75;4943642;28;104667;-39
2021/03/19 10:14:38;;;;;;;3.70;1.60;;;6.70;99.90;;;4.98;52.94;102169.19;4925910;28;104362;-39
2021/03/19 10:17:17;;;;;;;3.60;1.60;;;6.70;99.90;;;5.01;53.51;102178.88;4925113;28;102424;-39
2021/03/19 10:19:51;;;;;;;3.45;1.40;;;6.60;99.90;;;5.07;53.88;102174.75;4943573;28;102409;-39
2021/03/19 10:22:33;;;;;;;2.15;1.30;;;6.60;99.90;;;5.14;52.87;102175.88;4925253;28;103556;-39
2021/03/19 10:25:32;;;;;;;2.47;1.40;;;6.70;99.90;;;5.00;51.20;102169.91;4926015;28;103383;-39
2021/03/19 10:28:16;;;;;;;4.53;1.50;;;6.70;99.90;;;5.24;52.81;102168.59;4916229;28;102633;-39
2021/03/19 10:30:54;;;;;;;3.25;1.40;;;6.80;99.90;;;5.37;52.61;102162.06;4943102;28;102266;-39
2021/03/19 10:33:41;;;;;;;1.45;1.10;;;6.90;99.90;;;5.36;50.54;102154.94;4911424;28;102608;-39
2021/03/19 10:36:17;;;;;;;3.10;1.48;;;6.90;98.40;;;5.48;50.05;102156.47;4943261;28;102886;-39
2021/03/19 10:38:57;;;;;;;2.03;1.20;;;7.00;98.70;;;5.52;48.70;102166.00;4943249;28;103610;-39
2021/03/19 10:41:48;;;;;;;2.53;1.15;;;7.10;97.30;;;5.64;49.94;102160.41;4942821;28;103581;-39
2021/03/19 10:44:28;;;;;;;4.47;1.40;;;7.20;96.80;;;5.99;51.70;102157.03;4942412;28;102603;-39
2021/03/19 10:47:24;;;;;;;3.25;1.40;;;7.40;99.90;;;6.17;48.73;102159.81;4925644;28;103224;-39
2021/03/19 10:50:08;;;;;;;2.83;1.30;;;7.60;97.50;;;6.18;50.77;102166.06;4925962;28;102732;-39
2021/03/19 10:52:47;;;;;;;4.00;1.33;;;7.70;97.70;;;6.14;46.88;102170.09;4925750;28;105328;-39
2021/03/19 10:55:25;;;;;;;;;;;7.70;94.30;;;5.99;47.72;102166.97;4943420;28;102579;-39
2021/03/19 10:58:22;;;;;;;4.93;1.70;;;7.60;93.60;;;6.03;48.37;102165.72;4925938;28;104387;-39
2021/03/19 11:00:53;;;;;;;2.63;1.20;;;7.60;94.00;;;6.30;47.23;102161.28;4929555;28;102735;-39
2021/03/19 11:03:47;;;;;;;2.20;1.13;;;7.70;93.70;;;6.59;48.19;102161.13;4942351;28;102342;-39